sensor_id;sensor_type;location;lat;lon;timestamp;pressure;altitude;pressure_sealevel;temperature;humidity
5550;BME280;2798;42.716;23.256;2022-07-22T00:00:54;94798.81;;;24.63;48.79
5550;BME280;2798;42.716;23.256;2022-07-22T00:03:20;94759.91;;;24.51;49.98
5550;BME280;2798;42.716;23.256;2022-07-22T00:05:46;94795.94;;;24.57;50.75
5550;BME280;2798;42.716;23.256;2022-07-22T00:08:11;94799.56;;;24.50;51.92
5550;BME280;2798;42.716;23.256;2022-07-22T00:10:37;94794.59;;;24.26;52.47
5550;BME280;2798;42.716;23.256;2022-07-22T00:13:02;94798.41;;;24.17;53.06
5550;BME280;2798;42.716;23.256;2022-07-22T00:15:28;94803.72;;;24.24;52.22
5550;BME280;2798;42.716;23.256;2022-07-22T00:17:54;94798.63;;;24.15;51.85
5550;BME280;2798;42.716;23.256;2022-07-22T00:20:19;94803.31;;;23.91;52.36
5550;BME280;2798;42.716;23.256;2022-07-22T00:22:45;94800.81;;;23.76;53.35
5550;BME280;2798;42.716;23.256;2022-07-22T00:25:11;94803.66;;;23.81;53.02
5550;BME280;2798;42.716;23.256;2022-07-22T00:27:36;94796.53;;;23.75;53.04
5550;BME280;2798;42.716;23.256;2022-07-22T00:30:03;94799.78;;;23.77;53.17
5550;BME280;2798;42.716;23.256;2022-07-22T00:32:29;94803.47;;;23.83;53.04
5550;BME280;2798;42.716;23.256;2022-07-22T00:34:54;94795.75;;;23.81;52.89
5550;BME280;2798;42.716;23.256;2022-07-22T00:37:20;94792.78;;;23.91;53.30
5550;BME280;2798;42.716;23.256;2022-07-22T00:39:45;94801.06;;;23.88;53.42
5550;BME280;2798;42.716;23.256;2022-07-22T00:42:13;94803.50;;;23.90;52.93
5550;BME280;2798;42.716;23.256;2022-07-22T00:44:39;94805.09;;;23.84;53.61
5550;BME280;2798;42.716;23.256;2022-07-22T00:47:04;94812.94;;;23.77;53.61
5550;BME280;2798;42.716;23.256;2022-07-22T00:49:30;94807.38;;;23.65;54.35
5550;BME280;2798;42.716;23.256;2022-07-22T00:51:55;94813.66;;;23.64;54.68
5550;BME280;2798;42.716;23.256;2022-07-22T00:54:21;94807.63;;;23.70;55.04
5550;BME280;2798;42.716;23.256;2022-07-22T00:56:47;94807.81;;;23.69;54.56
5550;BME280;2798;42.716;23.256;2022-07-22T00:59:13;94808.34;;;23.57;55.04
5550;BME280;2798;42.716;23.256;2022-07-22T01:01:39;94805.06;;;23.49;54.98
5550;BME280;2798;42.716;23.256;2022-07-22T01:04:04;94810.91;;;23.51;55.05
5550;BME280;2798;42.716;23.256;2022-07-22T01:06:31;94806.91;;;23.55;54.88
5550;BME280;2798;42.716;23.256;2022-07-22T01:08:58;94815.97;;;23.52;55.11
5550;BME280;2798;42.716;23.256;2022-07-22T01:11:24;94818.19;;;23.49;55.25
5550;BME280;2798;42.716;23.256;2022-07-22T01:13:50;94813.16;;;23.32;55.74
5550;BME280;2798;42.716;23.256;2022-07-22T01:16:17;94807.66;;;23.27;55.53
5550;BME280;2798;42.716;23.256;2022-07-22T01:18:43;94798.06;;;22.90;56.82
5550;BME280;2798;42.716;23.256;2022-07-22T01:21:10;94799.94;;;22.96;56.69
5550;BME280;2798;42.716;23.256;2022-07-22T01:23:37;94799.03;;;22.89;56.34
5550;BME280;2798;42.716;23.256;2022-07-22T01:26:04;94789.94;;;23.07;56.35
5550;BME280;2798;42.716;23.256;2022-07-22T01:28:30;94789.00;;;23.15;55.74
5550;BME280;2798;42.716;23.256;2022-07-22T01:30:55;94809.50;;;23.04;56.61
5550;BME280;2798;42.716;23.256;2022-07-22T01:33:22;94810.44;;;22.96;56.97
5550;BME280;2798;42.716;23.256;2022-07-22T01:35:49;94803.22;;;23.05;56.52
5550;BME280;2798;42.716;23.256;2022-07-22T01:38:15;94814.94;;;23.03;56.68
5550;BME280;2798;42.716;23.256;2022-07-22T01:40:41;94808.56;;;22.90;57.10
5550;BME280;2798;42.716;23.256;2022-07-22T01:43:07;94771.28;;;22.58;57.43
5550;BME280;2798;42.716;23.256;2022-07-22T01:45:33;94803.25;;;22.83;57.28
5550;BME280;2798;42.716;23.256;2022-07-22T01:47:58;94800.72;;;22.75;57.00
5550;BME280;2798;42.716;23.256;2022-07-22T01:50:24;94804.44;;;22.81;57.69
5550;BME280;2798;42.716;23.256;2022-07-22T01:52:50;94806.31;;;22.87;57.40
5550;BME280;2798;42.716;23.256;2022-07-22T01:55:16;94806.97;;;22.74;58.00
5550;BME280;2798;42.716;23.256;2022-07-22T01:57:42;94813.84;;;22.75;57.71
5550;BME280;2798;42.716;23.256;2022-07-22T02:00:09;94815.59;;;22.68;58.05
5550;BME280;2798;42.716;23.256;2022-07-22T02:02:35;94809.91;;;22.86;57.58
5550;BME280;2798;42.716;23.256;2022-07-22T02:05:03;94795.03;;;22.71;58.29
5550;BME280;2798;42.716;23.256;2022-07-22T02:07:29;94822.81;;;22.66;58.31
5550;BME280;2798;42.716;23.256;2022-07-22T02:09:54;94830.09;;;22.33;59.00
5550;BME280;2798;42.716;23.256;2022-07-22T02:12:20;94828.03;;;21.98;60.09
5550;BME280;2798;42.716;23.256;2022-07-22T02:14:46;94827.94;;;21.68;61.59
5550;BME280;2798;42.716;23.256;2022-07-22T02:17:12;94826.50;;;21.27;63.21
5550;BME280;2798;42.716;23.256;2022-07-22T02:19:37;94822.56;;;21.08;64.13
5550;BME280;2798;42.716;23.256;2022-07-22T02:22:03;94824.94;;;21.18;63.99
5550;BME280;2798;42.716;23.256;2022-07-22T02:24:28;94823.63;;;20.98;64.94
5550;BME280;2798;42.716;23.256;2022-07-22T02:26:54;94829.31;;;21.02;64.53
5550;BME280;2798;42.716;23.256;2022-07-22T02:29:19;94832.75;;;21.26;63.76
5550;BME280;2798;42.716;23.256;2022-07-22T02:31:45;94827.78;;;21.31;63.36
5550;BME280;2798;42.716;23.256;2022-07-22T02:34:10;94822.81;;;21.60;62.72
5550;BME280;2798;42.716;23.256;2022-07-22T02:36:36;94823.78;;;21.59;62.60
5550;BME280;2798;42.716;23.256;2022-07-22T02:39:03;94816.84;;;21.66;62.87
5550;BME280;2798;42.716;23.256;2022-07-22T02:41:28;94819.47;;;21.66;62.95
5550;BME280;2798;42.716;23.256;2022-07-22T02:43:54;94815.72;;;21.45;64.13
5550;BME280;2798;42.716;23.256;2022-07-22T02:46:23;94795.56;;;21.31;64.05
5550;BME280;2798;42.716;23.256;2022-07-22T02:48:49;94819.06;;;21.54;63.35
5550;BME280;2798;42.716;23.256;2022-07-22T02:51:14;94814.31;;;21.58;62.61
5550;BME280;2798;42.716;23.256;2022-07-22T02:53:39;94820.53;;;21.57;62.90
5550;BME280;2798;42.716;23.256;2022-07-22T02:56:05;94822.63;;;21.61;62.93
5550;BME280;2798;42.716;23.256;2022-07-22T02:58:31;94811.31;;;21.61;62.33
5550;BME280;2798;42.716;23.256;2022-07-22T03:00:57;94823.41;;;21.62;63.00
5550;BME280;2798;42.716;23.256;2022-07-22T03:03:22;94826.78;;;21.71;62.81
5550;BME280;2798;42.716;23.256;2022-07-22T03:05:49;94820.97;;;21.60;62.86
5550;BME280;2798;42.716;23.256;2022-07-22T03:08:15;94816.69;;;21.68;62.25
5550;BME280;2798;42.716;23.256;2022-07-22T03:10:40;94822.44;;;21.63;62.54
5550;BME280;2798;42.716;23.256;2022-07-22T03:13:06;94805.72;;;21.64;62.22
5550;BME280;2798;42.716;23.256;2022-07-22T03:15:31;94817.38;;;21.61;62.38
5550;BME280;2798;42.716;23.256;2022-07-22T03:17:57;94827.56;;;21.56;62.55
5550;BME280;2798;42.716;23.256;2022-07-22T03:20:22;94826.94;;;21.54;62.85
5550;BME280;2798;42.716;23.256;2022-07-22T03:22:47;94817.47;;;21.53;62.72
5550;BME280;2798;42.716;23.256;2022-07-22T03:25:13;94829.09;;;21.51;63.36
5550;BME280;2798;42.716;23.256;2022-07-22T03:27:39;94795.50;;;21.39;63.17
5550;BME280;2798;42.716;23.256;2022-07-22T03:30:05;94817.91;;;21.18;64.04
5550;BME280;2798;42.716;23.256;2022-07-22T03:32:30;94824.09;;;21.02;64.74
5550;BME280;2798;42.716;23.256;2022-07-22T03:34:56;94821.53;;;20.85;65.13
5550;BME280;2798;42.716;23.256;2022-07-22T03:37:21;94825.88;;;21.02;64.91
5550;BME280;2798;42.716;23.256;2022-07-22T03:39:47;94824.19;;;21.09;64.56
5550;BME280;2798;42.716;23.256;2022-07-22T03:42:12;94822.50;;;21.16;63.92
5550;BME280;2798;42.716;23.256;2022-07-22T03:44:38;94842.38;;;21.26;63.46
5550;BME280;2798;42.716;23.256;2022-07-22T03:47:03;94828.56;;;20.85;64.42
5550;BME280;2798;42.716;23.256;2022-07-22T03:49:30;94839.13;;;20.68;65.39
5550;BME280;2798;42.716;23.256;2022-07-22T03:51:56;94842.91;;;20.57;66.59
5550;BME280;2798;42.716;23.256;2022-07-22T03:54:21;94847.81;;;20.60;66.07
5550;BME280;2798;42.716;23.256;2022-07-22T03:56:46;94844.47;;;20.75;65.70
5550;BME280;2798;42.716;23.256;2022-07-22T03:59:12;94840.06;;;20.75;64.22
5550;BME280;2798;42.716;23.256;2022-07-22T04:01:37;94847.88;;;20.84;64.04
5550;BME280;2798;42.716;23.256;2022-07-22T04:04:03;94841.81;;;20.83;63.65
5550;BME280;2798;42.716;23.256;2022-07-22T04:06:28;94856.97;;;20.96;63.20
5550;BME280;2798;42.716;23.256;2022-07-22T04:08:54;94849.97;;;20.88;63.55
5550;BME280;2798;42.716;23.256;2022-07-22T04:11:20;94856.97;;;20.88;63.38
5550;BME280;2798;42.716;23.256;2022-07-22T04:13:46;94861.75;;;20.84;63.42
5550;BME280;2798;42.716;23.256;2022-07-22T04:16:11;94860.97;;;20.75;63.69
5550;BME280;2798;42.716;23.256;2022-07-22T04:18:36;94853.44;;;20.81;63.71
5550;BME280;2798;42.716;23.256;2022-07-22T04:21:02;94854.03;;;20.91;64.06
5550;BME280;2798;42.716;23.256;2022-07-22T04:23:28;94849.34;;;20.78;64.47
5550;BME280;2798;42.716;23.256;2022-07-22T04:25:53;94854.88;;;20.92;64.18
5550;BME280;2798;42.716;23.256;2022-07-22T04:28:19;94857.63;;;20.98;63.75
5550;BME280;2798;42.716;23.256;2022-07-22T04:30:44;94866.53;;;21.12;63.94
5550;BME280;2798;42.716;23.256;2022-07-22T04:33:10;94865.88;;;21.10;63.88
5550;BME280;2798;42.716;23.256;2022-07-22T04:35:35;94870.00;;;21.05;63.94
5550;BME280;2798;42.716;23.256;2022-07-22T04:38:01;94875.75;;;20.68;65.25
5550;BME280;2798;42.716;23.256;2022-07-22T04:40:26;94872.84;;;20.55;65.95
5550;BME280;2798;42.716;23.256;2022-07-22T04:42:52;94868.63;;;20.54;65.92
5550;BME280;2798;42.716;23.256;2022-07-22T04:45:17;94876.53;;;20.69;65.46
5550;BME280;2798;42.716;23.256;2022-07-22T04:47:43;94879.91;;;20.86;65.17
5550;BME280;2798;42.716;23.256;2022-07-22T04:50:08;94875.59;;;21.02;64.48
5550;BME280;2798;42.716;23.256;2022-07-22T04:52:34;94856.41;;;21.09;63.70
5550;BME280;2798;42.716;23.256;2022-07-22T04:54:59;94886.19;;;21.32;63.23
5550;BME280;2798;42.716;23.256;2022-07-22T04:57:26;94886.06;;;21.48;62.46
5550;BME280;2798;42.716;23.256;2022-07-22T04:59:52;94882.69;;;21.63;62.26
5550;BME280;2798;42.716;23.256;2022-07-22T05:02:18;94879.81;;;21.73;61.38
5550;BME280;2798;42.716;23.256;2022-07-22T05:04:44;94884.59;;;21.69;61.24
5550;BME280;2798;42.716;23.256;2022-07-22T05:07:10;94887.28;;;21.61;61.46
5550;BME280;2798;42.716;23.256;2022-07-22T05:09:36;94845.38;;;21.61;61.07
5550;BME280;2798;42.716;23.256;2022-07-22T05:12:02;94883.13;;;21.90;60.47
5550;BME280;2798;42.716;23.256;2022-07-22T05:14:28;94879.06;;;22.03;60.38
5550;BME280;2798;42.716;23.256;2022-07-22T05:16:53;94891.38;;;22.17;59.98
5550;BME280;2798;42.716;23.256;2022-07-22T05:19:18;94884.50;;;22.31;59.58
5550;BME280;2798;42.716;23.256;2022-07-22T05:21:44;94867.78;;;22.32;59.14
5550;BME280;2798;42.716;23.256;2022-07-22T05:24:10;94887.16;;;22.62;58.75
5550;BME280;2798;42.716;23.256;2022-07-22T05:26:35;94882.97;;;22.67;58.58
5550;BME280;2798;42.716;23.256;2022-07-22T05:29:01;94892.00;;;22.80;57.98
5550;BME280;2798;42.716;23.256;2022-07-22T05:31:26;94898.91;;;23.03;57.69
5550;BME280;2798;42.716;23.256;2022-07-22T05:33:52;94887.84;;;23.07;58.64
5550;BME280;2798;42.716;23.256;2022-07-22T05:36:17;94892.63;;;23.19;59.94
5550;BME280;2798;42.716;23.256;2022-07-22T05:38:43;94892.19;;;23.37;58.52
5550;BME280;2798;42.716;23.256;2022-07-22T05:41:08;94887.41;;;23.41;57.78
5550;BME280;2798;42.716;23.256;2022-07-22T05:43:34;94897.66;;;23.57;57.72
5550;BME280;2798;42.716;23.256;2022-07-22T05:45:59;94896.69;;;23.65;56.96
5550;BME280;2798;42.716;23.256;2022-07-22T05:48:25;94903.41;;;23.68;57.01
5550;BME280;2798;42.716;23.256;2022-07-22T05:50:50;94897.41;;;23.74;57.27
5550;BME280;2798;42.716;23.256;2022-07-22T05:53:16;94894.84;;;23.88;54.33
5550;BME280;2798;42.716;23.256;2022-07-22T05:55:41;94891.25;;;23.89;54.28
5550;BME280;2798;42.716;23.256;2022-07-22T05:58:07;94903.69;;;23.80;53.79
5550;BME280;2798;42.716;23.256;2022-07-22T06:00:32;94900.75;;;23.90;53.58
5550;BME280;2798;42.716;23.256;2022-07-22T06:02:58;94898.34;;;23.95;53.28
5550;BME280;2798;42.716;23.256;2022-07-22T06:05:23;94889.84;;;23.93;53.63
5550;BME280;2798;42.716;23.256;2022-07-22T06:07:49;94896.88;;;24.14;54.16
5550;BME280;2798;42.716;23.256;2022-07-22T06:10:14;94896.72;;;24.16;53.86
5550;BME280;2798;42.716;23.256;2022-07-22T06:12:40;94882.00;;;24.28;53.69
5550;BME280;2798;42.716;23.256;2022-07-22T06:15:06;94892.16;;;24.31;53.17
5550;BME280;2798;42.716;23.256;2022-07-22T06:17:32;94898.94;;;24.54;52.26
5550;BME280;2798;42.716;23.256;2022-07-22T06:19:58;94899.28;;;24.44;51.43
5550;BME280;2798;42.716;23.256;2022-07-22T06:22:23;94898.34;;;24.59;52.03
5550;BME280;2798;42.716;23.256;2022-07-22T06:24:49;94891.13;;;24.75;51.47
5550;BME280;2798;42.716;23.256;2022-07-22T06:27:14;94896.34;;;24.61;51.90
5550;BME280;2798;42.716;23.256;2022-07-22T06:29:40;94901.84;;;24.66;52.42
5550;BME280;2798;42.716;23.256;2022-07-22T06:32:06;94897.81;;;24.71;51.37
5550;BME280;2798;42.716;23.256;2022-07-22T06:34:32;94902.69;;;24.74;52.07
5550;BME280;2798;42.716;23.256;2022-07-22T06:36:57;94909.47;;;24.97;51.24
5550;BME280;2798;42.716;23.256;2022-07-22T06:39:23;94908.84;;;24.94;50.78
5550;BME280;2798;42.716;23.256;2022-07-22T06:41:48;94907.25;;;24.93;50.80
5550;BME280;2798;42.716;23.256;2022-07-22T06:44:14;94902.41;;;25.04;50.71
5550;BME280;2798;42.716;23.256;2022-07-22T06:46:39;94907.72;;;25.17;50.74
5550;BME280;2798;42.716;23.256;2022-07-22T06:49:04;94901.44;;;25.18;50.81
5550;BME280;2798;42.716;23.256;2022-07-22T06:51:30;94898.84;;;25.32;51.06
5550;BME280;2798;42.716;23.256;2022-07-22T06:53:56;94893.97;;;25.42;50.83
5550;BME280;2798;42.716;23.256;2022-07-22T06:56:21;94892.63;;;25.80;49.90
5550;BME280;2798;42.716;23.256;2022-07-22T06:58:47;94913.09;;;25.85;50.02
5550;BME280;2798;42.716;23.256;2022-07-22T07:01:12;94899.31;;;25.90;49.69
5550;BME280;2798;42.716;23.256;2022-07-22T07:06:21;94902.13;;;26.09;49.44
5550;BME280;2798;42.716;23.256;2022-07-22T07:08:47;94910.63;;;26.24;48.66
5550;BME280;2798;42.716;23.256;2022-07-22T07:11:12;94909.19;;;26.28;48.73
5550;BME280;2798;42.716;23.256;2022-07-22T07:13:38;94909.19;;;26.28;48.02
5550;BME280;2798;42.716;23.256;2022-07-22T07:16:04;94912.03;;;26.47;48.87
5550;BME280;2798;42.716;23.256;2022-07-22T07:18:30;94904.31;;;26.52;48.54
5550;BME280;2798;42.716;23.256;2022-07-22T07:20:55;94907.13;;;26.64;47.90
5550;BME280;2798;42.716;23.256;2022-07-22T07:23:21;94899.00;;;26.66;46.80
5550;BME280;2798;42.716;23.256;2022-07-22T07:25:47;94907.91;;;26.72;47.47
5550;BME280;2798;42.716;23.256;2022-07-22T07:28:13;94905.63;;;26.89;46.47
5550;BME280;2798;42.716;23.256;2022-07-22T07:30:38;94907.78;;;26.99;45.84
5550;BME280;2798;42.716;23.256;2022-07-22T07:33:04;94892.19;;;26.90;44.98
5550;BME280;2798;42.716;23.256;2022-07-22T07:35:29;94913.50;;;27.02;44.74
5550;BME280;2798;42.716;23.256;2022-07-22T07:37:55;94907.34;;;27.15;44.59
5550;BME280;2798;42.716;23.256;2022-07-22T07:40:20;94891.31;;;27.10;45.59
5550;BME280;2798;42.716;23.256;2022-07-22T07:42:46;94900.34;;;27.28;44.75
5550;BME280;2798;42.716;23.256;2022-07-22T07:45:11;94906.31;;;27.49;43.82
5550;BME280;2798;42.716;23.256;2022-07-22T07:47:37;94911.34;;;27.57;43.55
5550;BME280;2798;42.716;23.256;2022-07-22T07:52:50;94912.34;;;27.63;43.65
5550;BME280;2798;42.716;23.256;2022-07-22T07:55:16;94910.44;;;27.77;43.60
5550;BME280;2798;42.716;23.256;2022-07-22T07:57:42;94918.84;;;27.93;43.56
5550;BME280;2798;42.716;23.256;2022-07-22T08:00:10;94906.63;;;28.17;42.42
5550;BME280;2798;42.716;23.256;2022-07-22T08:02:35;94911.84;;;28.24;42.58
5550;BME280;2798;42.716;23.256;2022-07-22T08:05:02;94916.25;;;28.37;42.13
5550;BME280;2798;42.716;23.256;2022-07-22T08:07:28;94913.59;;;28.37;41.38
5550;BME280;2798;42.716;23.256;2022-07-22T08:09:54;94917.41;;;28.41;41.27
5550;BME280;2798;42.716;23.256;2022-07-22T08:12:19;94920.81;;;28.48;39.74
5550;BME280;2798;42.716;23.256;2022-07-22T08:14:45;94905.72;;;28.49;38.94
5550;BME280;2798;42.716;23.256;2022-07-22T08:17:10;94916.03;;;28.57;39.22
5550;BME280;2798;42.716;23.256;2022-07-22T08:19:36;94918.16;;;28.67;39.22
5550;BME280;2798;42.716;23.256;2022-07-22T08:22:01;94923.16;;;28.75;38.29
5550;BME280;2798;42.716;23.256;2022-07-22T08:24:27;94917.88;;;28.75;38.35
5550;BME280;2798;42.716;23.256;2022-07-22T08:26:52;94910.56;;;28.90;38.08
5550;BME280;2798;42.716;23.256;2022-07-22T08:29:18;94913.09;;;29.03;37.98
5550;BME280;2798;42.716;23.256;2022-07-22T08:31:43;94916.13;;;29.19;37.52
5550;BME280;2798;42.716;23.256;2022-07-22T08:34:09;94914.09;;;29.21;37.52
5550;BME280;2798;42.716;23.256;2022-07-22T08:36:34;94915.97;;;29.32;37.69
5550;BME280;2798;42.716;23.256;2022-07-22T08:39:00;94909.91;;;29.44;37.46
5550;BME280;2798;42.716;23.256;2022-07-22T08:41:25;94912.97;;;29.59;37.06
5550;BME280;2798;42.716;23.256;2022-07-22T08:43:52;94911.13;;;29.72;36.88
5550;BME280;2798;42.716;23.256;2022-07-22T08:46:18;94906.09;;;29.82;36.70
5550;BME280;2798;42.716;23.256;2022-07-22T08:48:43;94903.28;;;29.89;36.31
5550;BME280;2798;42.716;23.256;2022-07-22T08:51:09;94908.63;;;30.01;36.15
5550;BME280;2798;42.716;23.256;2022-07-22T08:53:34;94912.09;;;30.14;36.12
5550;BME280;2798;42.716;23.256;2022-07-22T08:56:00;94912.66;;;29.92;36.12
5550;BME280;2798;42.716;23.256;2022-07-22T08:58:26;94912.53;;;29.86;35.50
5550;BME280;2798;42.716;23.256;2022-07-22T09:01:15;94921.16;;;29.70;35.36
5550;BME280;2798;42.716;23.256;2022-07-22T09:03:47;94922.22;;;29.81;35.58
5550;BME280;2798;42.716;23.256;2022-07-22T09:06:13;94917.59;;;29.88;35.45
5550;BME280;2798;42.716;23.256;2022-07-22T09:09:02;94913.47;;;30.04;35.66
5550;BME280;2798;42.716;23.256;2022-07-22T09:11:29;94902.50;;;30.13;35.49
5550;BME280;2798;42.716;23.256;2022-07-22T09:13:55;94904.72;;;30.28;35.13
5550;BME280;2798;42.716;23.256;2022-07-22T09:16:53;94918.91;;;30.45;34.80
5550;BME280;2798;42.716;23.256;2022-07-22T09:19:31;94911.16;;;30.56;35.54
5550;BME280;2798;42.716;23.256;2022-07-22T09:21:56;94925.69;;;30.77;34.49
5550;BME280;2798;42.716;23.256;2022-07-22T09:24:32;94924.41;;;30.92;34.58
5550;BME280;2798;42.716;23.256;2022-07-22T09:26:57;94917.94;;;30.88;34.74
5550;BME280;2798;42.716;23.256;2022-07-22T09:29:23;94916.97;;;30.94;33.73
5550;BME280;2798;42.716;23.256;2022-07-22T09:31:51;94917.19;;;31.04;33.25
5550;BME280;2798;42.716;23.256;2022-07-22T09:34:31;94913.78;;;31.21;33.08
5550;BME280;2798;42.716;23.256;2022-07-22T09:37:00;94915.91;;;31.36;33.44
5550;BME280;2798;42.716;23.256;2022-07-22T09:39:31;94901.81;;;31.36;31.53
5550;BME280;2798;42.716;23.256;2022-07-22T09:41:58;94911.53;;;31.30;32.38
5550;BME280;2798;42.716;23.256;2022-07-22T09:44:24;94917.38;;;31.44;32.36
5550;BME280;2798;42.716;23.256;2022-07-22T09:46:50;94910.81;;;31.64;31.85
5550;BME280;2798;42.716;23.256;2022-07-22T09:49:33;94916.28;;;31.57;31.69
5550;BME280;2798;42.716;23.256;2022-07-22T09:52:01;94901.00;;;31.64;31.96
5550;BME280;2798;42.716;23.256;2022-07-22T09:54:28;94900.75;;;31.66;32.45
5550;BME280;2798;42.716;23.256;2022-07-22T09:56:56;94906.78;;;31.78;32.13
5550;BME280;2798;42.716;23.256;2022-07-22T09:59:22;94900.59;;;31.73;31.60
5550;BME280;2798;42.716;23.256;2022-07-22T10:01:50;94904.84;;;31.91;32.23
5550;BME280;2798;42.716;23.256;2022-07-22T10:04:19;94905.63;;;32.03;32.13
5550;BME280;2798;42.716;23.256;2022-07-22T10:06:47;94895.19;;;31.67;30.87
5550;BME280;2798;42.716;23.256;2022-07-22T10:09:14;94896.41;;;31.60;31.68
5550;BME280;2798;42.716;23.256;2022-07-22T10:11:40;94901.00;;;31.64;31.66
5550;BME280;2798;42.716;23.256;2022-07-22T10:14:11;94898.00;;;31.61;29.92
5550;BME280;2798;42.716;23.256;2022-07-22T10:16:37;94889.88;;;31.67;27.89
5550;BME280;2798;42.716;23.256;2022-07-22T10:19:03;94895.66;;;31.81;30.10
5550;BME280;2798;42.716;23.256;2022-07-22T10:21:32;94884.47;;;31.62;30.21
5550;BME280;2798;42.716;23.256;2022-07-22T10:24:12;94887.84;;;31.75;30.29
5550;BME280;2798;42.716;23.256;2022-07-22T10:26:56;94881.22;;;31.94;30.58
5550;BME280;2798;42.716;23.256;2022-07-22T10:29:30;94879.88;;;31.92;30.97
5550;BME280;2798;42.716;23.256;2022-07-22T10:34:40;94883.47;;;32.37;30.60
5550;BME280;2798;42.716;23.256;2022-07-22T10:40:24;94879.34;;;32.69;30.33
5550;BME280;2798;42.716;23.256;2022-07-22T10:45:24;94877.75;;;32.96;29.92
5550;BME280;2798;42.716;23.256;2022-07-22T10:53:14;94875.38;;;33.22;29.39
5550;BME280;2798;42.716;23.256;2022-07-22T11:00:58;94879.50;;;32.85;29.24
5550;BME280;2798;42.716;23.256;2022-07-22T11:03:25;94886.94;;;32.83;29.15
5550;BME280;2798;42.716;23.256;2022-07-22T11:05:51;94875.84;;;32.91;28.83
5550;BME280;2798;42.716;23.256;2022-07-22T11:08:16;94867.34;;;32.94;28.41
5550;BME280;2798;42.716;23.256;2022-07-22T11:10:50;94873.69;;;33.10;28.76
5550;BME280;2798;42.716;23.256;2022-07-22T11:13:32;94867.94;;;33.24;27.46
5550;BME280;2798;42.716;23.256;2022-07-22T11:16:17;94869.66;;;33.35;26.67
5550;BME280;2798;42.716;23.256;2022-07-22T11:21:23;94874.34;;;33.23;26.88
5550;BME280;2798;42.716;23.256;2022-07-22T11:23:52;94870.94;;;33.27;26.57
5550;BME280;2798;42.716;23.256;2022-07-22T11:26:25;94867.53;;;33.37;26.59
5550;BME280;2798;42.716;23.256;2022-07-22T11:28:50;94866.28;;;33.45;26.11
5550;BME280;2798;42.716;23.256;2022-07-22T11:31:17;94866.75;;;33.37;26.17
5550;BME280;2798;42.716;23.256;2022-07-22T11:33:44;94867.94;;;33.51;25.84
5550;BME280;2798;42.716;23.256;2022-07-22T11:36:10;94868.28;;;33.33;26.51
5550;BME280;2798;42.716;23.256;2022-07-22T11:39:02;94870.50;;;33.41;26.44
5550;BME280;2798;42.716;23.256;2022-07-22T11:41:29;94870.69;;;33.34;26.25
5550;BME280;2798;42.716;23.256;2022-07-22T11:43:56;94858.28;;;33.45;26.23
5550;BME280;2798;42.716;23.256;2022-07-22T11:46:22;94862.38;;;33.58;26.23
5550;BME280;2798;42.716;23.256;2022-07-22T11:48:48;94859.66;;;33.53;26.25
5550;BME280;2798;42.716;23.256;2022-07-22T11:51:13;94859.66;;;33.53;25.94
5550;BME280;2798;42.716;23.256;2022-07-22T11:53:41;94858.34;;;33.55;26.60
5550;BME280;2798;42.716;23.256;2022-07-22T11:56:08;94868.03;;;33.62;26.75
5550;BME280;2798;42.716;23.256;2022-07-22T12:01:09;94869.31;;;33.59;26.47
5550;BME280;2798;42.716;23.256;2022-07-22T12:03:36;94847.81;;;33.71;26.73
5550;BME280;2798;42.716;23.256;2022-07-22T12:06:04;94827.09;;;33.84;26.20
5550;BME280;2798;42.716;23.256;2022-07-22T12:08:32;94852.81;;;33.95;26.12
5550;BME280;2798;42.716;23.256;2022-07-22T12:10:58;94849.75;;;33.76;26.19
5550;BME280;2798;42.716;23.256;2022-07-22T12:13:33;94860.16;;;33.77;26.67
5550;BME280;2798;42.716;23.256;2022-07-22T12:15:58;94846.56;;;33.79;26.41
5550;BME280;2798;42.716;23.256;2022-07-22T12:18:26;94852.72;;;33.85;26.60
5550;BME280;2798;42.716;23.256;2022-07-22T12:20:53;94843.28;;;34.15;25.66
5550;BME280;2798;42.716;23.256;2022-07-22T12:23:20;94848.75;;;34.36;25.15
5550;BME280;2798;42.716;23.256;2022-07-22T12:26:12;94839.66;;;34.32;25.46
5550;BME280;2798;42.716;23.256;2022-07-22T12:28:37;94839.50;;;34.54;25.61
5550;BME280;2798;42.716;23.256;2022-07-22T12:31:04;94836.31;;;34.62;25.36
5550;BME280;2798;42.716;23.256;2022-07-22T12:33:30;94839.56;;;34.70;25.92
5550;BME280;2798;42.716;23.256;2022-07-22T12:36:04;94831.63;;;34.26;25.68
5550;BME280;2798;42.716;23.256;2022-07-22T12:38:31;94837.28;;;34.40;25.73
5550;BME280;2798;42.716;23.256;2022-07-22T12:41:26;94843.91;;;34.22;25.88
5550;BME280;2798;42.716;23.256;2022-07-22T12:43:52;94832.53;;;33.99;25.75
5550;BME280;2798;42.716;23.256;2022-07-22T12:46:17;94832.59;;;34.15;26.24
5550;BME280;2798;42.716;23.256;2022-07-22T12:48:53;94822.38;;;34.50;26.10
5550;BME280;2798;42.716;23.256;2022-07-22T12:51:19;94825.91;;;34.61;25.64
5550;BME280;2798;42.716;23.256;2022-07-22T12:53:44;94821.09;;;34.68;25.86
5550;BME280;2798;42.716;23.256;2022-07-22T12:56:10;94825.47;;;34.85;25.35
5550;BME280;2798;42.716;23.256;2022-07-22T12:58:37;94833.53;;;35.11;25.21
5550;BME280;2798;42.716;23.256;2022-07-22T13:01:06;94814.84;;;35.32;24.26
5550;BME280;2798;42.716;23.256;2022-07-22T13:03:32;94826.56;;;35.10;24.73
5550;BME280;2798;42.716;23.256;2022-07-22T13:06:03;94828.16;;;34.95;25.19
5550;BME280;2798;42.716;23.256;2022-07-22T13:08:29;94833.50;;;35.00;25.54
5550;BME280;2798;42.716;23.256;2022-07-22T13:10:55;94829.56;;;35.24;25.14
5550;BME280;2798;42.716;23.256;2022-07-22T13:13:22;94828.75;;;35.39;24.79
5550;BME280;2798;42.716;23.256;2022-07-22T13:15:48;94837.03;;;35.63;24.05
5550;BME280;2798;42.716;23.256;2022-07-22T13:18:14;94834.38;;;35.63;23.77
5550;BME280;2798;42.716;23.256;2022-07-22T13:20:39;94827.97;;;35.59;24.32
5550;BME280;2798;42.716;23.256;2022-07-22T13:23:05;94835.44;;;35.68;24.47
5550;BME280;2798;42.716;23.256;2022-07-22T13:25:31;94830.63;;;35.75;23.81
5550;BME280;2798;42.716;23.256;2022-07-22T13:27:58;94834.38;;;35.63;23.56
5550;BME280;2798;42.716;23.256;2022-07-22T13:30:23;94831.19;;;35.72;23.82
5550;BME280;2798;42.716;23.256;2022-07-22T13:32:49;94833.31;;;35.85;23.85
5550;BME280;2798;42.716;23.256;2022-07-22T13:35:15;94834.88;;;36.07;23.38
5550;BME280;2798;42.716;23.256;2022-07-22T13:37:41;94837.28;;;36.14;23.26